Time;durP1;ratioP1;P1;durP2;ratioP2;P2;SDS_P1;SDS_P2;PMS_P1;PMS_P2;Temp;Humidity;BMP_temperature;BMP_pressure;BME280_temperature;BME280_humidity;BME280_pressure;Samples;Min_cycle;Max_cycle;Signal;HPM_P1;HPM_P2
2023/12/02 00:01:45;;;;;;;19.85;11.32;;;;;;;-144.05;61.27;57114.34;5005946;28;20097;-84
2023/12/02 00:04:12;;;;;;;21.23;10.95;;;;;;;-144.05;61.38;57152.56;4965704;28;20063;-85
2023/12/02 00:06:38;;;;;;;18.27;10.32;;;;;;;-144.05;61.31;57131.31;4961137;28;20088;-85
2023/12/02 00:09:04;;;;;;;20.13;10.90;;;;;;;-144.05;60.94;57131.31;5006466;28;20035;-82
2023/12/02 00:11:30;;;;;;;17.90;10.60;;;;;;;-144.05;61.11;57080.34;4976871;28;20038;-85
2023/12/02 00:13:56;;;;;;;21.95;11.05;;;;;;;-144.05;61.27;57112.22;4996534;28;20036;-84
2023/12/02 00:16:23;;;;;;;16.55;9.85;;;;;;;-144.05;61.69;57129.22;4969479;28;20059;-84
2023/12/02 00:18:49;;;;;;;20.73;11.77;;;;;;;-144.05;61.55;57141.94;5048003;28;20496;-83
2023/12/02 00:21:16;;;;;;;23.38;11.25;;;;;;;-144.05;61.36;57133.44;5017606;28;20427;-83
2023/12/02 00:23:42;;;;;;;18.15;9.75;;;;;;;-144.05;61.01;57105.84;4987976;28;20055;-85
2023/12/02 00:26:08;;;;;;;20.50;10.35;;;;;;;-144.05;60.43;57103.72;5035676;28;20172;-85
2023/12/02 00:28:35;;;;;;;17.58;10.13;;;;;;;-144.05;60.26;57101.59;5007580;28;20031;-83
2023/12/02 00:31:01;;;;;;;19.25;10.57;;;;;;;-144.05;60.57;57129.22;4966574;28;20042;-83
2023/12/02 00:33:27;;;;;;;18.85;10.65;;;;;;;-144.05;60.67;57088.84;5014836;28;20031;-84
2023/12/02 00:35:54;;;;;;;17.77;10.10;;;;;;;-144.05;60.92;57088.84;5003464;28;20059;-83
2023/12/02 00:38:20;;;;;;;19.27;10.32;;;;;;;-144.05;61.10;57103.72;4985102;28;20063;-84
2023/12/02 00:40:46;;;;;;;19.45;11.32;;;;;;;-144.05;61.20;57101.59;4970523;28;20492;-83
2023/12/02 00:43:12;;;;;;;22.20;11.32;;;;;;;-144.05;61.26;57120.72;5022463;28;20039;-82
2023/12/02 00:45:39;;;;;;;18.52;10.63;;;;;;;-144.05;61.06;57131.31;5009437;28;20054;-84
2023/12/02 00:48:05;;;;;;;18.02;9.73;;;;;;;-144.05;60.83;57127.09;4968446;28;20095;-85
2023/12/02 00:50:32;;;;;;;21.45;11.38;;;;;;;-144.05;60.36;57103.72;4989573;28;20114;-84
2023/12/02 00:52:58;;;;;;;17.98;10.05;;;;;;;-144.05;60.44;57093.09;5003021;28;20031;-84
2023/12/02 00:55:24;;;;;;;18.08;11.00;;;;;;;-144.05;60.74;57116.47;5014622;28;20060;-83
2023/12/02 00:57:50;;;;;;;19.70;10.90;;;;;;;-144.05;60.70;57112.22;4962718;28;20035;-83
2023/12/02 01:00:17;;;;;;;18.10;10.18;;;;;;;-144.05;60.53;57156.81;5006997;28;20033;-84
2023/12/02 01:02:44;;;;;;;18.52;10.43;;;;;;;-144.05;60.68;57133.44;5016416;28;20641;-85
2023/12/02 01:05:10;;;;;;;17.70;10.93;;;;;;;-144.05;60.30;57107.97;5018127;28;20043;-84
2023/12/02 01:07:36;;;;;;;16.95;9.55;;;;;;;-144.05;60.43;57120.72;5009216;28;20100;-83
2023/12/02 01:10:03;;;;;;;21.05;10.35;;;;;;;-144.05;60.36;57133.44;4974850;28;20050;-84
2023/12/02 01:12:30;;;;;;;19.52;10.25;;;;;;;-144.05;60.68;57137.69;4958287;28;20073;-84
2023/12/02 01:14:56;;;;;;;21.50;10.07;;;;;;;-144.05;60.48;57135.56;4967030;28;20070;-84
2023/12/02 01:17:23;;;;;;;17.67;10.57;;;-0.70;99.90;;;-144.05;60.20;57110.09;5030914;28;20157;-83
2023/12/02 01:19:52;;;;;;;21.30;10.55;;;;;;;-144.05;60.03;57139.81;4965915;28;20039;-84
2023/12/02 01:22:18;;;;;;;20.75;10.90;;;;;;;-144.05;59.93;57131.31;4966951;28;20058;-83
2023/12/02 01:24:45;;;;;;;18.25;10.05;;;;;;;-144.05;60.26;57120.72;5018135;28;20102;-83
2023/12/02 01:27:11;;;;;;;22.10;11.63;;;;;;;-144.05;60.00;57099.47;4968953;28;20490;-84
2023/12/02 01:29:38;;;;;;;17.33;10.23;;;-0.90;99.90;;;-144.05;59.77;57120.72;5021346;28;20032;-85
2023/12/02 01:32:04;;;;;;;21.55;10.30;;;;;;;-144.05;59.57;57110.09;4975409;28;20042;-84
2023/12/02 01:34:31;;;;;;;20.25;10.48;;;;;;;-144.05;59.50;57110.09;5013692;28;20039;-83
2023/12/02 01:36:57;;;;;;;17.77;9.90;;;;;;;-144.05;59.69;57133.44;4977812;28;20034;-85
2023/12/02 01:39:24;;;;;;;23.33;11.15;;;;;;;-144.05;60.04;57116.47;5017162;28;20040;-84
2023/12/02 01:41:50;;;;;;;19.50;10.50;;;;;;;-144.05;59.98;57095.22;5001607;28;20481;-83
2023/12/02 01:44:16;;;;;;;21.02;10.95;;;;;;;-144.05;60.94;57146.19;4989924;28;20069;-83
2023/12/02 01:46:43;;;;;;;21.35;11.50;;;;;;;-144.05;60.76;57124.97;5006724;28;20046;-84
2023/12/02 01:49:10;;;;;;;21.77;11.80;;;;;;;-144.05;60.01;57088.84;4963379;28;20384;-83
2023/12/02 01:51:37;;;;;;;21.33;11.10;;;-1.00;99.90;;;-144.05;59.65;57161.06;4963811;28;20562;-83
2023/12/02 01:54:04;;;;;;;22.88;11.73;;;-1.00;99.90;;;-144.05;59.74;57133.44;4958312;28;20150;-85
2023/12/02 01:56:31;;;;;;;24.50;12.15;;;;;;;-144.05;59.52;57144.06;5015281;28;20034;-82
2023/12/02 01:58:57;;;;;;;20.80;10.75;;;;;;;-144.05;59.63;57097.34;5004952;28;20067;-82
2023/12/02 02:01:23;;;;;;;23.60;11.90;;;;;;;-144.05;59.35;57127.09;5026642;28;20500;-83
2023/12/02 02:03:50;;;;;;;23.77;12.13;;;;;;;-144.05;59.51;57112.22;4993266;28;20036;-84
2023/12/02 02:06:16;;;;;;;27.58;12.80;;;;;;;-144.05;59.68;57090.97;5032106;28;20035;-82
2023/12/02 02:08:43;;;;;;;25.20;11.32;;;;;;;-144.05;59.67;57114.34;4970801;28;20035;-83
2023/12/02 02:11:10;;;;;;;25.48;11.85;;;;;;;-144.05;59.79;57146.19;4971341;28;20035;-83
2023/12/02 02:13:41;;;;;;;21.75;10.50;;;-1.10;99.90;;;-144.05;59.62;57105.84;5031346;28;20082;-84
2023/12/02 02:16:08;;;;;;;23.88;12.18;;;;;;;-144.05;59.40;57146.19;4995256;28;20031;-83
2023/12/02 02:18:36;;;;;;;25.63;12.32;;;-1.10;99.90;;;-144.05;59.04;57137.69;4990231;28;20039;-85
2023/12/02 02:21:03;;;;;;;27.45;12.00;;;;;;;-144.05;59.27;57137.69;5017902;28;20061;-84
2023/12/02 02:23:29;;;;;;;24.38;11.60;;;;;;;-144.05;59.19;57101.59;5006690;28;20046;-82
2023/12/02 02:25:57;;;;;;;24.40;12.30;;;-1.10;99.90;;;-144.05;59.34;57127.09;5005773;28;20027;-83
2023/12/02 02:28:26;;;;;;;28.85;12.52;;;-1.40;99.90;;;-144.05;59.38;57116.47;4962875;28;20038;-84
2023/12/02 02:30:53;;;;;;;29.90;12.73;;;-1.60;99.90;;;-144.05;59.60;57135.56;5001576;28;20491;-83
2023/12/02 02:33:20;;;;;;;24.50;11.18;;;;;;;-144.05;59.41;57137.69;4993937;28;20027;-83
2023/12/02 02:35:47;;;;;;;21.95;10.90;;;;;;;-144.05;59.08;57124.97;5030798;28;20026;-84
2023/12/02 02:38:14;;;;;;;22.67;10.80;;;;;;;-144.05;58.93;57114.34;5022136;28;20028;-83
2023/12/02 02:40:40;;;;;;;25.35;13.52;;;;;;;-144.05;59.05;57163.19;4977741;28;20041;-86
2023/12/02 02:43:07;;;;;;;22.52;11.20;;;;;;;-144.05;59.09;57112.22;5019849;28;20081;-85
2023/12/02 02:45:33;;;;;;;26.02;11.98;;;;;;;-144.05;59.06;57135.56;5018132;28;20120;-85
2023/12/02 02:47:59;;;;;;;24.33;11.30;;;;;;;-144.05;59.17;57105.84;4967155;28;20031;-84
2023/12/02 02:50:26;;;;;;;25.60;12.40;;;;;;;-144.05;58.42;57135.56;5019312;28;20031;-85
2023/12/02 02:52:52;;;;;;;24.80;11.35;;;;;;;-144.05;58.76;57120.72;5047799;28;20173;-84
2023/12/02 02:55:18;;;;;;;25.33;12.10;;;;;;;-144.05;58.82;57144.06;5031262;28;20028;-85
2023/12/02 02:57:45;;;;;;;21.92;11.27;;;;;;;-144.05;59.01;57137.69;4992246;28;20028;-85
2023/12/02 03:00:12;;;;;;;26.27;11.13;;;;;;;-144.05;58.77;57141.94;5035990;28;20456;-85
2023/12/02 03:02:42;;;;;;;23.80;11.70;;;;;;;-144.05;59.13;57120.72;4964742;28;20034;-84
2023/12/02 03:05:08;;;;;;;21.13;11.63;;;;;;;-144.05;59.29;57105.84;5016939;28;20667;-84
2023/12/02 03:07:34;;;;;;;23.05;10.70;;;;;;;-144.05;59.59;57148.31;5016891;28;20062;-84
2023/12/02 03:10:00;;;;;;;23.55;11.68;;;;;;;-144.05;59.58;57141.94;4971656;28;20515;-85
2023/12/02 03:12:27;;;;;;;27.58;12.35;;;;;;;-144.05;60.01;57095.22;4975585;28;20114;-84
2023/12/02 03:14:57;;;;;;;25.50;11.73;;;-1.20;99.90;;;-144.05;59.49;57112.22;5005623;28;20031;-84
2023/12/02 03:17:23;;;;;;;22.98;10.90;;;;;;;-144.05;59.01;57101.59;4972815;28;20026;-84
2023/12/02 03:19:50;;;;;;;24.70;11.68;;;;;;;-144.05;58.79;57154.69;4967581;28;20035;-84
2023/12/02 03:22:16;;;;;;;25.73;12.15;;;;;;;-144.05;58.78;57112.22;5016386;28;20116;-87
2023/12/02 03:24:42;;;;;;;22.17;11.63;;;;;;;-144.05;58.48;57124.97;4994572;28;20028;-84
2023/12/02 03:27:09;;;;;;;22.05;10.95;;;;;;;-144.05;58.83;57112.22;4986607;28;20039;-85
2023/12/02 03:29:35;;;;;;;23.17;11.13;;;;;;;-144.05;58.33;57135.56;4977328;28;20043;-82
2023/12/02 03:32:01;;;;;;;20.67;10.80;;;;;;;-144.05;58.46;57090.97;4960584;28;20027;-83
2023/12/02 03:34:27;;;;;;;22.17;9.93;;;;;;;-144.05;58.51;57107.97;4975298;28;20035;-85
2023/12/02 03:36:53;;;;;;;25.40;11.98;;;;;;;-144.05;58.41;57129.22;5004088;28;20090;-84
2023/12/02 03:39:20;;;;;;;24.55;10.75;;;;;;;-144.05;58.48;57122.84;5014522;28;20090;-84
2023/12/02 03:41:46;;;;;;;21.27;10.85;;;;;;;-144.05;58.60;57110.09;5015223;28;20027;-84
2023/12/02 03:44:12;;;;;;;23.70;11.48;;;;;;;-144.05;58.72;57141.94;5011324;28;20039;-83
2023/12/02 03:46:39;;;;;;;23.00;11.65;;;;;;;-144.05;58.50;57122.84;4961717;28;20027;-85
2023/12/02 03:49:05;;;;;;;23.73;11.73;;;;;;;-144.05;58.62;57124.97;5026857;28;20034;-83
2023/12/02 03:51:32;;;;;;;24.60;11.45;;;-1.20;99.90;;;-144.05;58.77;57107.97;4963985;28;20659;-82
2023/12/02 03:53:58;;;;;;;21.67;10.40;;;;;;;-144.05;58.63;57095.22;4987446;28;20031;-84
2023/12/02 03:56:24;;;;;;;24.25;11.02;;;;;;;-144.05;58.79;57146.19;4982590;28;20030;-83
2023/12/02 03:58:51;;;;;;;24.60;11.70;;;;;;;-144.05;58.76;57097.34;5008086;28;20095;-84
2023/12/02 04:01:18;;;;;;;24.60;11.88;;;;;;;-144.05;58.67;57112.22;4974233;28;20038;-83
2023/12/02 04:03:45;;;;;;;22.73;10.43;;;-1.30;99.90;;;-144.05;58.72;57152.56;4989526;28;20035;-83
2023/12/02 04:06:11;;;;;;;24.38;11.57;;;;;;;-144.05;58.75;57127.09;4998240;28;20060;-85
2023/12/02 04:08:38;;;;;;;25.98;11.05;;;;;;;-144.05;59.42;57139.81;5013539;28;20029;-85
2023/12/02 04:11:04;;;;;;;25.10;12.43;;;;;;;-144.05;59.26;57141.94;5007910;28;20036;-84
2023/12/02 04:13:30;;;;;;;22.10;11.32;;;;;;;-144.05;59.38;57131.31;4984354;28;20035;-84
2023/12/02 04:15:57;;;;;;;25.58;12.45;;;;;;;-144.05;59.55;57129.22;4998295;28;20373;-84
2023/12/02 04:18:23;;;;;;;20.17;10.30;;;;;;;-144.05;59.72;57139.81;4965607;28;20112;-85
2023/12/02 04:20:50;;;;;;;20.55;10.45;;;;;;;-144.05;59.74;57154.69;4974557;28;20038;-83
2023/12/02 04:23:16;;;;;;;24.08;11.82;;;;;;;-144.05;59.65;57131.31;5009884;28;20416;-84
2023/12/02 04:25:42;;;;;;;23.67;10.93;;;;;;;-144.05;59.61;57127.09;4976263;28;20027;-83
2023/12/02 04:28:09;;;;;;;24.00;10.80;;;-1.40;99.90;;;-144.05;59.21;57110.09;4970597;28;20023;-82
2023/12/02 04:30:35;;;;;;;23.92;11.15;;;;;;;-144.05;59.34;57090.97;5035309;28;20098;-84
2023/12/02 04:33:03;;;;;;;24.50;11.23;;;;;;;-144.05;59.38;57101.59;5008415;28;20036;-83
2023/12/02 04:35:31;;;;;;;21.77;10.95;;;;;;;-144.05;59.33;57154.69;4972868;28;20035;-83
2023/12/02 04:37:57;;;;;;;22.23;10.73;;;;;;;-144.05;59.18;57095.22;5017299;28;20110;-84
2023/12/02 04:40:23;;;;;;;23.85;11.13;;;;;;;-144.05;59.02;57097.34;4965825;28;20034;-81
2023/12/02 04:42:49;;;;;;;23.13;11.48;;;;;;;-144.05;59.08;57120.72;4962662;28;20039;-84
2023/12/02 04:45:16;;;;;;;22.75;11.52;;;;;;;-144.05;58.97;57141.94;5014406;28;20035;-85
2023/12/02 04:47:42;;;;;;;23.08;10.93;;;;;;;-144.05;58.85;57110.09;4961839;28;20388;-84
2023/12/02 04:50:09;;;;;;;24.05;11.05;;;;;;;-144.05;58.94;57135.56;4962382;28;20023;-85
2023/12/02 04:52:35;;;;;;;20.05;10.00;;;;;;;-144.05;59.01;57137.69;4981465;28;20035;-84
2023/12/02 04:55:01;;;;;;;24.30;11.75;;;;;;;-144.05;59.25;57135.56;4992754;28;20073;-83
2023/12/02 04:57:27;;;;;;;19.65;10.38;;;;;;;-144.05;59.02;57137.69;5005903;28;20028;-84
2023/12/02 04:59:53;;;;;;;20.05;9.90;;;;;;;-144.05;59.08;57093.09;4974130;28;20081;-84
2023/12/02 05:02:20;;;;;;;18.55;9.70;;;;;;;-144.05;58.77;57122.84;5010276;28;20031;-84
2023/12/02 05:04:47;;;;;;;22.77;10.20;;;;;;;-144.05;58.50;57112.22;5003395;28;20032;-84
2023/12/02 05:07:14;;;;;;;18.63;9.35;;;;;;;-144.05;58.46;57103.72;4998605;28;20024;-85
2023/12/02 05:09:40;;;;;;;20.80;9.70;;;;;;;-144.05;58.73;57116.47;4966303;28;20031;-85
2023/12/02 05:12:07;;;;;;;18.20;9.27;;;-1.90;99.90;;;-144.05;58.43;57103.72;4970014;28;20028;-85
2023/12/02 05:14:34;;;;;;;20.60;10.70;;;;;;;-144.05;58.67;57099.47;4977311;28;20447;-85
2023/12/02 05:17:00;;;;;;;17.73;10.48;;;;;;;-144.05;58.88;57133.44;4967995;28;20576;-85
2023/12/02 05:19:27;;;;;;;17.35;9.70;;;;;;;-144.05;58.64;57099.47;4982008;28;20035;-84
2023/12/02 05:21:53;;;;;;;19.25;9.32;;;;;;;-144.05;58.29;57169.56;5031759;28;20031;-82
2023/12/02 05:24:19;;;;;;;16.65;8.52;;;;;;;-144.05;58.31;57105.84;4977896;28;20113;-81
2023/12/02 05:26:46;;;;;;;19.30;9.60;;;;;;;-144.05;58.34;57124.97;4988520;28;20047;-83
2023/12/02 05:29:12;;;;;;;20.73;10.38;;;;;;;-144.05;58.35;57165.31;4994625;28;20461;-84
2023/12/02 05:31:39;;;;;;;19.63;10.43;;;-2.20;99.90;;;-144.05;58.51;57110.09;4983070;28;20040;-84
2023/12/02 05:34:05;;;;;;;18.55;9.93;;;;;;;-144.05;58.53;57124.97;5040010;28;20399;-84
2023/12/02 05:36:31;;;;;;;18.05;9.30;;;;;;;-144.05;58.62;57165.31;4975533;28;20035;-83
2023/12/02 05:38:58;;;;;;;15.77;8.85;;;;;;;-144.05;58.85;57124.97;5024438;28;20027;-83
2023/12/02 05:41:24;;;;;;;17.25;9.43;;;;;;;-144.05;58.83;57133.44;4971135;28;20031;-84
2023/12/02 05:43:50;;;;;;;16.92;9.00;;;;;;;-144.05;58.79;57144.06;5034177;28;20028;-85
2023/12/02 05:46:18;;;;;;;19.67;10.05;;;-1.50;99.90;;;-144.05;58.76;57118.59;4987111;28;20391;-83
2023/12/02 05:48:44;;;;;;;16.13;8.45;;;-1.70;99.90;;;-144.05;58.20;57146.19;5000622;28;20028;-83
2023/12/02 05:51:13;;;;;;;14.45;7.60;;;-1.60;99.90;;;-144.05;58.53;57131.31;4988803;28;20042;-84
2023/12/02 05:53:39;;;;;;;18.95;9.10;;;;;;;-144.05;58.57;57158.94;4963246;28;20031;-83
2023/12/02 05:56:10;;;;;;;16.33;8.77;;;-1.50;99.90;;;-144.05;58.54;57127.09;4959310;28;20027;-82
2023/12/02 05:58:36;;;;;;;14.68;7.95;;;;;;;-144.05;58.47;57120.72;4972500;28;20515;-85
2023/12/02 06:01:03;;;;;;;16.55;8.73;;;;;;;-144.05;58.72;57133.44;5009807;28;20027;-85
2023/12/02 06:03:29;;;;;;;15.23;8.18;;;;;;;-144.05;58.57;57137.69;5005928;28;20158;-85
2023/12/02 06:05:55;;;;;;;17.30;9.07;;;;;;;-144.05;58.68;57133.44;5009378;28;20021;-82
2023/12/02 06:08:22;;;;;;;17.63;8.95;;;;;;;-144.05;58.54;57120.72;5026336;28;20182;-84
2023/12/02 06:10:48;;;;;;;17.75;9.30;;;;;;;-144.05;59.04;57146.19;4989948;28;20416;-83
2023/12/02 06:13:14;;;;;;;16.95;8.38;;;;;;;-144.05;59.16;57122.84;5030601;28;20052;-83
2023/12/02 06:15:41;;;;;;;19.20;9.55;;;;;;;-144.05;59.07;57129.22;4971651;28;20129;-84
2023/12/02 06:18:07;;;;;;;16.65;8.52;;;;;;;-144.05;59.36;57141.94;5014497;28;20035;-84
2023/12/02 06:20:33;;;;;;;14.80;8.43;;;;;;;-144.05;59.37;57133.44;4979566;28;20031;-84
2023/12/02 06:22:59;;;;;;;23.45;9.68;;;;;;;-144.05;59.58;57137.69;4999136;28;20066;-84
2023/12/02 06:25:26;;;;;;;19.08;10.38;;;;;;;-144.05;59.37;57124.97;4970251;28;20122;-83
2023/12/02 06:27:52;;;;;;;17.65;8.90;;;;;;;-144.05;59.38;57158.94;4995159;28;20026;-85
2023/12/02 06:30:18;;;;;;;16.90;9.30;;;;;;;-144.05;59.23;57129.22;4995628;28;20028;-82
2023/12/02 06:32:45;;;;;;;18.52;10.02;;;;;;;-144.05;59.31;57112.22;5031478;28;20166;-83
2023/12/02 06:35:12;;;;;;;13.52;7.93;;;;;;;-144.05;59.65;57124.97;4987921;28;20038;-82
2023/12/02 06:37:38;;;;;;;15.55;8.43;;;;;;;-144.05;59.75;57099.47;4964027;28;20034;-84
2023/12/02 06:40:05;;;;;;;17.40;8.93;;;;;;;-144.05;59.58;57158.94;5001520;28;20033;-85
2023/12/02 06:42:31;;;;;;;15.93;7.80;;;;;;;-144.05;59.85;57093.09;5036769;28;20054;-85
2023/12/02 06:44:57;;;;;;;16.92;8.23;;;;;;;-144.05;59.94;57127.09;5059747;28;20025;-83
2023/12/02 06:47:23;;;;;;;16.88;8.73;;;;;;;-144.05;59.94;57131.31;4995174;28;20067;-86
2023/12/02 06:49:50;;;;;;;19.17;9.45;;;;;;;-144.05;59.55;57120.72;5012448;28;20504;-86
2023/12/02 06:52:16;;;;;;;18.65;8.60;;;;;;;-144.05;59.17;57120.72;4986728;28;20113;-86
2023/12/02 06:54:42;;;;;;;19.83;10.15;;;;;;;-144.05;59.07;57114.34;5018958;28;20038;-86
2023/12/02 06:57:08;;;;;;;16.23;9.80;;;;;;;-144.05;59.25;57127.09;5029063;28;20035;-84
2023/12/02 06:59:35;;;;;;;19.35;10.55;;;;;;;-144.05;59.19;57144.06;4961632;28;20034;-86
2023/12/02 07:02:01;;;;;;;19.52;9.98;;;;;;;-144.05;59.53;57133.44;4973615;28;20465;-82
2023/12/02 07:04:28;;;;;;;19.10;10.43;;;;;;;-144.05;59.51;57156.81;4974376;28;20031;-82
2023/12/02 07:06:54;;;;;;;17.80;9.18;;;;;;;-144.05;59.33;57120.72;5007054;28;20091;-83
2023/12/02 07:09:20;;;;;;;17.25;9.40;;;;;;;-144.05;59.05;57112.22;4986287;28;20117;-81
2023/12/02 07:11:46;;;;;;;18.23;8.82;;;;;;;-144.05;58.70;57129.22;4993035;28;20038;-83
2023/12/02 07:14:13;;;;;;;15.80;8.52;;;;;;;-144.05;58.80;57148.31;4975665;28;20039;-85
2023/12/02 07:16:39;;;;;;;15.57;7.78;;;;;;;-144.05;58.77;57120.72;4975995;28;20081;-81
2023/12/02 07:19:05;;;;;;;12.00;7.57;;;;;;;-144.05;59.14;57116.47;4974213;28;20092;-84
2023/12/02 07:21:31;;;;;;;17.98;9.30;;;;;;;-144.05;59.02;57124.97;5014961;28;20108;-81
2023/12/02 07:23:57;;;;;;;45.38;23.17;;;;;;;-144.05;58.97;57146.19;4973352;28;20472;-81
2023/12/02 07:26:24;;;;;;;31.00;16.95;;;;;;;-144.05;59.02;57148.31;4957673;28;20035;-83
2023/12/02 07:28:50;;;;;;;15.98;8.55;;;;;;;-144.05;58.16;57120.72;4958218;28;20500;-83
2023/12/02 07:31:17;;;;;;;15.93;8.10;;;;;;;-144.05;58.01;57120.72;4974840;28;20493;-82
2023/12/02 07:33:43;;;;;;;15.00;7.93;;;;;;;-144.05;58.06;57131.31;5012338;28;20038;-85
2023/12/02 07:36:11;;;;;;;45.05;20.08;;;-1.60;99.90;;;-144.05;58.50;57167.44;4970045;28;20153;-77
2023/12/02 07:38:40;;;;;;;12.65;7.35;;;;;;;-144.05;58.12;57135.56;4972521;28;20038;-82
2023/12/02 07:41:08;;;;;;;14.57;7.55;;;-1.70;99.90;;;-144.05;57.93;57154.69;4969501;28;20121;-84
2023/12/02 07:43:34;;;;;;;19.90;10.18;;;;;;;-144.05;58.24;57141.94;4972027;28;20138;-80
2023/12/02 07:46:01;;;;;;;55.58;25.77;;;;;;;-144.05;58.50;57165.31;4967086;28;20100;-82
2023/12/02 07:48:27;;;;;;;24.15;11.63;;;;;;;-144.05;58.32;57114.34;4973575;28;20118;-82
2023/12/02 07:50:53;;;;;;;28.67;12.75;;;;;;;-144.05;58.31;57165.31;5017921;28;20522;-84
2023/12/02 07:53:19;;;;;;;15.30;8.05;;;;;;;-144.05;58.43;57129.22;5015287;28;20032;-82
2023/12/02 07:55:46;;;;;;;18.17;10.00;;;;;;;-144.05;58.77;57146.19;4956401;28;20070;-82
2023/12/02 07:58:12;;;;;;;23.58;10.32;;;;;;;-144.05;58.92;57131.31;5012460;28;20039;-83
2023/12/02 08:00:38;;;;;;;24.40;9.23;;;;;;;-144.05;58.89;57110.09;4966068;28;20046;-83
2023/12/02 08:03:04;;;;;;;17.60;9.95;;;;;;;-144.05;58.90;57114.34;4974543;28;20504;-84
2023/12/02 08:05:31;;;;;;;19.73;9.55;;;;;;;-144.05;59.24;57120.72;4974625;28;20073;-84
2023/12/02 08:07:57;;;;;;;19.30;9.50;;;;;;;-144.05;59.36;57099.47;5021540;28;20539;-84
2023/12/02 08:10:23;;;;;;;31.13;14.52;;;;;;;-144.05;59.30;57144.06;5008331;28;20103;-82
2023/12/02 08:12:50;;;;;;;31.83;14.05;;;;;;;-144.05;59.12;57103.72;4967444;28;20054;-83
2023/12/02 08:15:16;;;;;;;32.53;14.73;;;;;;;-144.05;58.85;57156.81;4977104;28;20030;-84
2023/12/02 08:17:42;;;;;;;33.33;14.90;;;;;;;-144.05;58.70;57090.97;5007650;28;20037;-84
2023/12/02 08:20:09;;;;;;;40.80;17.35;;;;;;;-144.05;58.25;57133.44;4971777;28;20492;-83
2023/12/02 08:22:35;;;;;;;50.67;22.75;;;;;;;-144.05;57.85;57110.09;4982926;28;20031;-84
2023/12/02 08:25:01;;;;;;;51.92;23.50;;;;;;;-144.05;58.19;57137.69;5023954;28;20090;-83
2023/12/02 08:27:27;;;;;;;47.00;20.73;;;;;;;-144.05;58.23;57141.94;4965518;28;20484;-81
2023/12/02 08:29:54;;;;;;;42.78;21.20;;;;;;;-144.05;58.49;57133.44;4976991;28;20131;-85
2023/12/02 08:32:20;;;;;;;42.20;20.10;;;;;;;-144.05;58.57;57139.81;4972864;28;20039;-83
2023/12/02 08:34:46;;;;;;;36.65;17.50;;;;;;;-144.05;58.97;57139.81;5011070;28;20040;-83
2023/12/02 08:37:13;;;;;;;32.60;15.57;;;;;;;-144.05;57.93;57146.19;4973182;28;20103;-82
2023/12/02 08:39:39;;;;;;;28.40;14.18;;;;;;;-144.05;58.25;57139.81;5014208;28;20042;-82
2023/12/02 08:42:06;;;;;;;30.20;14.75;;;;;;;-144.05;58.26;57114.34;4980217;28;20027;-82
2023/12/02 08:44:32;;;;;;;29.00;14.38;;;;;;;-144.05;58.42;57116.47;4995258;28;20057;-83
2023/12/02 08:47:00;;;;;;;26.40;14.15;;;;;;;-144.05;58.21;57095.22;5046001;28;20148;-87
2023/12/02 08:49:27;;;;;;;32.08;14.73;;;;;;;-144.05;58.14;57103.72;4992286;28;20038;-85
2023/12/02 08:51:54;;;;;;;30.13;14.23;;;;;;;-144.05;58.17;57080.34;5031136;28;20034;-86
2023/12/02 08:54:20;;;;;;;27.75;14.30;;;;;;;-144.05;58.20;57114.34;4985430;28;20070;-83
2023/12/02 08:56:46;;;;;;;29.05;13.23;;;;;;;-144.05;58.32;57107.97;5023352;28;20109;-83
2023/12/02 08:59:12;;;;;;;25.77;11.93;;;;;;;-144.05;58.22;57112.22;4982979;28;20106;-80
2023/12/02 09:01:39;;;;;;;34.47;14.20;;;;;;;-144.05;57.56;57150.44;4987054;28;20110;-83
2023/12/02 09:04:07;;;;;;;27.63;13.27;;;;;;;-144.05;57.52;57124.97;4983663;28;20035;-83
2023/12/02 09:06:33;;;;;;;24.10;12.43;;;;;;;-144.05;57.77;57097.34;5018768;28;20038;-83
2023/12/02 09:08:59;;;;;;;27.33;13.73;;;;;;;-144.05;58.01;57093.09;4967879;28;20035;-83
2023/12/02 09:11:26;;;;;;;30.55;14.30;;;;;;;-144.05;57.08;57105.84;4963830;28;20031;-84
2023/12/02 09:13:52;;;;;;;30.40;12.45;;;;;;;-144.05;57.21;57110.09;4981555;28;20096;-82
2023/12/02 09:16:24;;;;;;;31.08;14.13;;;-0.90;99.90;;;-144.05;57.25;57107.97;5033470;28;20485;-82
2023/12/02 09:18:51;;;;;;;25.25;12.85;;;;;;;-144.05;57.02;57124.97;5015965;28;20085;-83
2023/12/02 09:21:44;;;;;;;30.98;14.60;;;-0.90;99.90;;;-144.05;57.45;57112.22;5050006;28;20361;-84
2023/12/02 09:24:38;;;;;;;30.58;14.27;;;-0.60;99.90;;;-144.05;57.56;57112.22;5024875;28;20119;-83
2023/12/02 09:27:07;;;;;;;28.98;13.23;;;-0.70;99.90;;;-144.05;56.28;57144.06;4977907;28;20050;-85
2023/12/02 09:29:43;;;;;;;29.00;14.10;;;;;;;-144.05;56.25;57110.09;5024425;28;20046;-84
2023/12/02 09:32:45;;;;;;;30.70;14.82;;;-0.80;99.90;;;-144.05;56.72;57088.84;4980250;28;20041;-83
2023/12/02 09:35:12;;;;;;;26.52;14.05;;;;;;;-144.05;57.35;57112.22;5011076;28;20070;-82
2023/12/02 09:37:55;;;;;;;24.10;12.48;;;;;;;-144.05;57.13;57073.97;4997401;28;20465;-83
2023/12/02 09:40:21;;;;;;;24.48;12.43;;;;;;;-144.05;56.74;57112.22;4976319;28;20031;-83
2023/12/02 09:43:15;;;;;;;22.30;11.30;;;0.00;99.90;;;-144.05;57.01;57129.22;4962560;28;20054;-83
2023/12/02 09:46:22;;;;;;;23.52;11.52;;;-1.00;99.90;;;-144.05;56.83;57114.34;4984453;28;20106;-84
2023/12/02 09:49:26;;;;;;;18.88;9.60;;;-0.60;99.90;;;-144.05;57.36;57103.72;5013818;28;20157;-81
2023/12/02 09:52:10;;;;;;;19.30;9.90;;;-0.20;99.90;;;-144.05;57.35;57139.81;4985660;28;20035;-86
2023/12/02 09:55:09;;;;;;;23.55;11.07;;;-0.50;99.90;;;-144.05;57.70;57093.09;4980095;28;20035;-84
2023/12/02 09:58:16;;;;;;;32.55;13.05;;;-0.10;99.90;;;-144.05;56.84;57093.09;4978967;28;20085;-83
2023/12/02 10:01:17;;;;;;;20.77;10.77;;;0.10;99.90;;;-144.05;56.30;57107.97;4999816;28;20080;-83
2023/12/02 10:03:59;;;;;;;22.13;11.35;;;0.50;99.90;;;-144.05;54.07;57116.47;5009869;28;20032;-84
2023/12/02 10:06:49;;;;;;;23.50;11.35;;;0.50;99.90;;;-144.05;55.12;57086.72;4985909;28;20515;-83
2023/12/02 10:09:55;;;;;;;23.83;12.35;;;0.70;99.90;;;-144.05;53.45;57099.47;5037484;28;20393;-84
2023/12/02 10:13:25;;;;;;;18.25;9.63;;;0.80;99.90;;;-144.05;52.70;57086.72;4974557;28;20062;-83
2023/12/02 10:16:03;;;;;;;22.35;10.23;;;1.10;99.90;;;-144.05;52.65;57095.22;4999473;28;20025;-81
2023/12/02 10:18:42;;;;;;;20.48;10.77;;;1.10;99.90;;;-144.05;52.89;57090.97;4984887;28;20031;-80
2023/12/02 10:21:16;;;;;;;20.98;12.48;;;1.20;99.90;;;-144.05;52.56;57090.97;4971168;28;20085;-81
2023/12/02 10:24:14;;;;;;;20.45;10.60;;;1.10;99.90;;;-144.05;52.34;57065.47;4959506;28;20110;-84
2023/12/02 10:27:14;;;;;;;20.33;10.77;;;1.10;99.90;;;-144.05;52.34;57063.34;4955895;28;20132;-80
2023/12/02 10:30:17;;;;;;;19.95;10.40;;;1.00;99.90;;;-144.05;52.67;57093.09;4969099;28;20043;-82
2023/12/02 10:33:21;;;;;;;20.98;10.23;;;1.00;99.90;;;-144.05;52.70;57069.72;5009978;28;20122;-82
2023/12/02 10:35:49;;;;;;;17.75;10.05;;;1.20;99.90;;;-144.05;51.11;57065.47;5015798;28;20109;-83
2023/12/02 10:38:29;;;;;;;19.67;10.88;;;;;;;-144.05;51.94;57090.97;4970949;28;20102;-82
2023/12/02 10:41:17;;;;;;;19.00;10.15;;;1.40;99.90;;;-144.05;51.95;57088.84;5009971;28;20500;-85
2023/12/02 10:43:47;;;;;;;21.95;9.98;;;1.40;99.90;;;-144.05;51.86;57067.59;5006044;28;20495;-82
2023/12/02 10:46:13;;;;;;;20.65;11.23;;;1.30;99.90;;;-144.05;51.70;57080.34;4974423;28;20026;-82
2023/12/02 10:48:41;;;;;;;22.23;11.32;;;1.20;99.90;;;-144.05;51.51;57069.72;4986530;28;20019;-82
2023/12/02 10:51:09;;;;;;;18.08;10.52;;;;;;;-144.05;52.56;57071.84;4979744;28;20080;-84
2023/12/02 10:53:37;;;;;;;18.10;9.55;;;1.20;99.90;;;-144.05;52.49;57101.59;4973861;28;20031;-81
2023/12/02 10:56:13;;;;;;;21.13;10.95;;;;;;;-144.05;52.46;57069.72;4988762;28;20039;-84
2023/12/02 10:58:44;;;;;;;21.92;10.48;;;1.40;99.90;;;-144.05;51.73;57067.59;4973244;28;20038;-83